Time;durP1;ratioP1;P1;durP2;ratioP2;P2;SDS_P1;SDS_P2;PMS_P1;PMS_P2;Temp;Humidity;BMP_temperature;BMP_pressure;BME280_temperature;BME280_humidity;BME280_pressure;Samples;Min_cycle;Max_cycle;Signal;HPM_P1;HPM_P2
2022/11/03 00:07:49;;;;;;;10.50;3.53;;;7.30;99.90;;;;;;21018858;28;20032;-77
2022/11/03 00:17:50;;;;;;;16.73;4.53;;;7.40;99.90;;;;;;21004848;28;20028;-77
2022/11/03 00:27:54;;;;;;;10.83;3.87;;;7.30;99.90;;;;;;21000401;28;20075;-77
2022/11/03 00:37:55;;;;;;;11.13;4.13;;;7.20;99.90;;;;;;21017142;28;20034;-77
2022/11/03 00:58:32;;;;;;;9.32;3.25;;;7.10;99.90;;;;;;20969605;28;20586;-77
2022/11/03 01:08:35;;;;;;;11.05;3.65;;;7.10;99.90;;;;;;21020353;28;20495;-78
2022/11/03 01:18:35;;;;;;;7.25;3.47;;;7.00;99.90;;;;;;21001381;28;20483;-78
2022/11/03 01:28:39;;;;;;;9.40;3.03;;;6.80;99.90;;;;;;21019495;28;20032;-78
2022/11/03 01:38:41;;;;;;;7.80;3.67;;;6.80;99.90;;;;;;21020516;28;20044;-77
2022/11/03 01:49:13;;;;;;;7.38;2.95;;;6.60;99.90;;;;;;21019850;28;20058;-77
2022/11/03 01:59:16;;;;;;;4.18;1.98;;;6.20;99.90;;;;;;21003876;28;20098;-77
2022/11/03 02:09:18;;;;;;;9.73;3.05;;;6.00;99.90;;;;;;21013672;28;20040;-78
2022/11/03 02:19:36;;;;;;;4.78;2.35;;;6.00;99.90;;;;;;21015388;28;20036;-78
2022/11/03 02:29:37;;;;;;;5.88;2.78;;;6.20;99.90;;;;;;21014813;28;20036;-78
2022/11/03 02:39:53;;;;;;;10.63;3.75;;;6.10;99.90;;;;;;21000650;28;20086;-78
2022/11/03 02:49:54;;;;;;;8.85;3.83;;;6.10;99.90;;;;;;21014932;28;20036;-78
2022/11/03 03:00:05;;;;;;;9.93;4.68;;;6.10;99.90;;;;;;20979965;28;20116;-78
2022/11/03 03:10:11;;;;;;;10.97;4.43;;;6.10;99.90;;;;;;21015584;28;20032;-79
2022/11/03 03:20:27;;;;;;;10.23;4.38;;;6.00;99.90;;;;;;21013867;28;20036;-78
2022/11/03 03:30:30;;;;;;;12.10;4.68;;;5.90;99.90;;;;;;21007750;28;20457;-78
2022/11/03 03:40:37;;;;;;;10.30;4.82;;;5.70;99.90;;;;;;20987461;28;20081;-78
2022/11/03 03:50:41;;;;;;;35.05;5.20;;;5.60;99.90;;;;;;21024842;28;20082;-78
2022/11/03 04:00:42;;;;;;;16.40;4.75;;;5.40;99.90;;;;;;21024815;28;20056;-80
2022/11/03 04:31:25;;;;;;;24.92;6.85;;;5.40;99.90;;;;;;21023190;28;20494;-78
2022/11/03 04:41:31;;;;;;;14.95;7.00;;;5.50;99.90;;;;;;21018921;28;20103;-77
2022/11/03 04:51:34;;;;;;;24.50;7.80;;;5.60;99.90;;;;;;21003917;28;20216;-79
2022/11/03 05:01:34;;;;;;;17.38;7.65;;;5.60;99.90;;;;;;21002946;28;20029;-79
2022/11/03 05:11:36;;;;;;;;;;;5.80;99.90;;;;;;21007444;28;20033;-79
2022/11/03 05:21:38;;;;;;;16.35;7.43;;;5.90;99.90;;;;;;21009039;28;19920;-78
2022/11/03 05:31:40;;;;;;;;;;;6.00;99.90;;;;;;21031671;28;20030;-78
2022/11/03 05:41:41;;;;;;;21.57;6.40;;;6.10;99.90;;;;;;21076341;28;20374;-77
2022/11/03 05:51:43;;;;;;;14.97;6.47;;;6.30;99.90;;;;;;21108427;28;20051;-79
2022/11/03 06:01:44;;;;;;;10.73;6.57;;;6.30;99.90;;;;;;21125358;28;20697;-78
2022/11/03 06:11:44;;;;;;;;;;;6.30;99.90;;;;;;21128846;28;20023;-77
2022/11/03 06:21:46;;;;;;;16.50;5.97;;;6.30;99.90;;;;;;21095668;28;19916;-78
2022/11/03 06:31:50;;;;;;;14.15;5.85;;;6.40;99.90;;;;;;21108679;28;20028;-77
2022/11/03 06:41:52;;;;;;;12.48;5.78;;;6.40;99.90;;;;;;21062321;28;20052;-78
2022/11/03 06:51:53;;;;;;;11.98;5.80;;;6.50;99.90;;;;;;21048087;28;20050;-79
2022/11/03 07:01:54;;;;;;;15.55;6.75;;;6.50;99.90;;;;;;21047819;28;20028;-78
2022/11/03 07:11:59;;;;;;;;;;;6.60;99.90;;;;;;21090203;28;20032;-78
2022/11/03 07:22:03;;;;;;;37.53;10.50;;;6.70;99.90;;;;;;21085448;28;19955;-78
2022/11/03 07:32:17;;;;;;;34.05;10.95;;;6.80;99.90;;;;;;21091372;28;20043;-79
2022/11/03 07:42:21;;;;;;;49.22;11.80;;;6.90;99.90;;;;;;21116627;28;20036;-79
2022/11/03 07:52:24;;;;;;;43.42;13.85;;;7.00;99.90;;;;;;21070317;28;20398;-78
2022/11/03 08:02:40;;;;;;;52.67;14.07;;;6.90;99.90;;;;;;21110400;28;20115;-77
2022/11/03 08:12:41;;;;;;;49.28;14.02;;;7.10;99.90;;;;;;21114801;28;20073;-78
2022/11/03 08:22:41;;;;;;;44.20;15.07;;;7.20;99.90;;;;;;21101050;28;20099;-78
2022/11/03 08:32:42;;;;;;;58.58;15.18;;;7.40;99.90;;;;;;21118692;28;20039;-78
2022/11/03 08:42:43;;;;;;;45.13;16.07;;;7.40;99.90;;;;;;21146037;28;20044;-79
2022/11/03 08:52:44;;;;;;;48.05;13.57;;;7.80;99.90;;;;;;21132566;28;20036;-78
2022/11/03 09:02:45;;;;;;;39.67;14.70;;;8.10;99.90;;;;;;21054182;22;20403;-78
2022/11/03 09:12:46;;;;;;;34.40;13.63;;;8.20;99.90;;;;;;20937469;28;20033;-78
2022/11/03 09:22:46;;;;;;;32.40;12.07;;;8.50;99.90;;;;;;20935824;28;20040;-79
2022/11/03 09:32:47;;;;;;;32.50;12.60;;;8.80;99.90;;;;;;20933098;28;20029;-79
2022/11/03 09:42:48;;;;;;;33.33;11.27;;;9.30;99.90;;;;;;20933680;28;20025;-79
2022/11/03 09:52:54;;;;;;;29.73;11.75;;;9.30;99.90;;;;;;20932678;28;20479;-79
2022/11/03 10:02:55;;;;;;;32.58;11.60;;;9.50;99.90;;;;;;20929760;28;20094;-79
2022/11/03 10:12:56;;;;;;;20.87;11.33;;;9.40;99.90;;;;;;20930930;28;20056;-79
2022/11/03 10:22:56;;;;;;;24.33;11.73;;;9.40;99.90;;;;;;20928311;28;20032;-78
2022/11/03 10:32:57;;;;;;;22.60;11.27;;;9.60;99.90;;;;;;20927010;28;20041;-79
2022/11/03 10:42:58;;;;;;;29.83;13.17;;;9.60;99.90;;;;;;20927081;28;20049;-78
2022/11/03 10:52:59;;;;;;;31.73;14.02;;;9.30;99.90;;;;;;20917803;28;20024;-79
2022/11/03 11:03:00;;;;;;;32.65;14.00;;;9.20;99.90;;;;;;20917882;28;20063;-79
2022/11/03 11:13:23;;;;;;;27.13;13.70;;;9.40;99.90;;;;;;20918514;28;20048;-79
2022/11/03 11:23:26;;;;;;;34.78;15.75;;;9.70;99.90;;;;;;20915950;28;20068;-78
2022/11/03 11:33:30;;;;;;;30.48;14.57;;;9.60;99.90;;;;;;20916209;28;20029;-77
2022/11/03 11:43:31;;;;;;;29.40;15.32;;;9.70;99.90;;;;;;20914460;28;20037;-79
2022/11/03 11:53:37;;;;;;;33.10;15.00;;;9.80;99.90;;;;;;20918588;28;20033;-78
2022/11/03 12:03:42;;;;;;;26.60;14.30;;;10.00;99.90;;;;;;20906284;28;20087;-78
2022/11/03 12:13:50;;;;;;;33.65;15.65;;;10.10;99.90;;;;;;20933396;28;20064;-80
2022/11/03 12:23:50;;;;;;;25.83;13.55;;;10.30;99.90;;;;;;20932657;28;20033;-78
2022/11/03 12:33:51;;;;;;;21.53;12.37;;;10.40;99.90;;;;;;20985065;28;20036;-78
2022/11/03 12:43:52;;;;;;;36.97;17.10;;;10.50;99.90;;;;;;21013574;28;20036;-78
2022/11/03 12:53:53;;;;;;;53.67;25.77;;;10.40;99.90;;;;;;20992269;28;20394;-78
2022/11/03 13:03:54;;;;;;;42.57;17.77;;;10.40;99.90;;;;;;21011455;28;20059;-78
2022/11/03 13:13:55;;;;;;;26.90;15.23;;;10.30;99.90;;;;;;20991862;28;20071;-78
2022/11/03 13:23:56;;;;;;;26.23;14.17;;;10.30;99.90;;;;;;21005907;28;20025;-78
2022/11/03 13:33:57;;;;;;;27.77;13.93;;;10.30;99.90;;;;;;21008013;28;20799;-79
2022/11/03 13:43:57;;;;;;;25.63;13.80;;;10.40;99.90;;;;;;21012873;28;20036;-79
2022/11/03 13:53:58;;;;;;;31.83;16.20;;;10.50;99.90;;;;;;21012844;28;20119;-79
2022/11/03 14:03:59;;;;;;;33.53;15.37;;;10.50;99.90;;;;;;21012264;28;20032;-79
2022/11/03 14:14:00;;;;;;;31.07;17.67;;;10.50;99.90;;;;;;21011378;28;20035;-80
2022/11/03 14:24:00;;;;;;;26.10;14.73;;;10.30;99.90;;;;;;20993872;28;20039;-80
2022/11/03 14:34:01;;;;;;;31.13;17.33;;;10.30;99.90;;;;;;20978135;28;20040;-80
2022/11/03 14:44:02;;;;;;;33.87;14.83;;;10.20;99.90;;;;;;21011605;28;20120;-79
2022/11/03 14:54:03;;;;;;;35.03;17.00;;;10.10;99.90;;;;;;21011271;28;20032;-79
2022/11/03 15:04:05;;;;;;;29.67;15.37;;;10.10;99.90;;;;;;21026116;22;20131;-78
2022/11/03 15:14:06;;;;;;;27.27;14.45;;;10.00;99.90;;;;;;20932803;28;20044;-78
2022/11/03 15:24:07;;;;;;;28.33;13.73;;;10.00;99.90;;;;;;20900592;28;20041;-77
2022/11/03 15:34:08;;;;;;;31.40;14.70;;;9.90;99.90;;;;;;20925011;28;20534;-78
2022/11/03 15:44:09;;;;;;;30.40;15.57;;;9.90;99.90;;;;;;20941059;28;20033;-79
2022/11/03 15:54:09;;;;;;;31.57;15.83;;;9.90;99.90;;;;;;20944872;28;20039;-78
2022/11/03 16:04:11;;;;;;;36.67;16.47;;;9.90;99.90;;;;;;21076532;28;20129;-78
2022/11/03 16:14:12;;;;;;;33.55;17.42;;;9.80;99.90;;;;;;21067679;28;20028;-78
2022/11/03 16:24:13;;;;;;;27.50;14.13;;;9.80;99.90;;;;;;21006107;28;20044;-79
2022/11/03 16:34:13;;;;;;;33.60;15.73;;;10.00;99.90;;;;;;20971737;28;20037;-79
2022/11/03 16:44:14;;;;;;;38.70;18.83;;;9.80;99.90;;;;;;20937069;28;20048;-78
2022/11/03 16:54:15;;;;;;;40.93;19.93;;;9.80;99.90;;;;;;21035512;28;20055;-77
2022/11/03 17:04:16;;;;;;;39.83;19.30;;;9.70;99.90;;;;;;20978796;28;20040;-77
2022/11/03 17:14:16;;;;;;;46.13;21.10;;;9.70;99.90;;;;;;20943883;28;20503;-77
2022/11/03 17:24:17;;;;;;;37.33;19.20;;;9.70;99.90;;;;;;20924078;28;20041;-76
2022/11/03 17:34:22;;;;;;;39.80;20.53;;;9.60;99.90;;;;;;20999198;28;20398;-77
2022/11/03 17:44:23;;;;;;;42.67;19.80;;;9.70;99.90;;;;;;21000254;28;20305;-77
2022/11/03 17:54:29;;;;;;;44.10;23.50;;;9.60;99.90;;;;;;21000644;28;20058;-77
2022/11/03 18:04:30;;;;;;;46.38;21.27;;;9.60;99.90;;;;;;20920160;28;20051;-77
2022/11/03 18:14:30;;;;;;;57.10;24.30;;;9.60;99.90;;;;;;20925034;28;20032;-78
2022/11/03 18:24:31;;;;;;;41.83;20.90;;;9.50;99.90;;;;;;20948395;28;20031;-78
2022/11/03 18:34:33;;;;;;;47.57;20.70;;;9.40;99.90;;;;;;20997717;28;20051;-78
2022/11/03 18:44:34;;;;;;;41.05;19.95;;;9.40;99.90;;;;;;20966678;28;20480;-77
2022/11/03 18:54:35;;;;;;;39.13;19.33;;;9.40;99.90;;;;;;20953490;28;20021;-77
2022/11/03 19:04:36;;;;;;;41.47;19.73;;;9.50;99.90;;;;;;20954816;28;20028;-78
2022/11/03 19:14:39;;;;;;;44.90;19.57;;;9.40;99.90;;;;;;20946232;28;20043;-77
2022/11/03 19:24:41;;;;;;;44.88;19.13;;;9.40;99.90;;;;;;20954381;28;20033;-78
2022/11/03 19:34:43;;;;;;;43.30;20.27;;;9.40;99.90;;;;;;21044098;28;20066;-78
2022/11/03 19:44:44;;;;;;;47.15;21.83;;;9.40;99.90;;;;;;21090735;28;20036;-78
2022/11/03 19:54:47;;;;;;;47.17;23.30;;;9.30;99.90;;;;;;20993893;28;20059;-77
2022/11/03 20:04:48;;;;;;;42.10;19.92;;;9.40;99.90;;;;;;20999470;28;20036;-78
2022/11/03 20:14:48;;;;;;;51.27;22.33;;;9.50;99.90;;;;;;20981123;28;20044;-78
2022/11/03 20:24:53;;;;;;;45.47;20.20;;;9.50;99.90;;;;;;21009752;28;20021;-78
2022/11/03 20:34:53;;;;;;;32.28;16.80;;;9.50;99.90;;;;;;21020589;28;20032;-78
2022/11/03 20:44:54;;;;;;;17.50;9.30;;;10.10;99.90;;;;;;21025380;28;20036;-79
2022/11/03 20:54:55;;;;;;;14.53;7.33;;;10.20;99.90;;;;;;21061846;28;20039;-78
2022/11/03 21:04:56;;;;;;;8.23;4.23;;;10.40;99.90;;;;;;21007972;28;20098;-78
2022/11/03 21:25:20;;;;;;;2.95;1.90;;;10.40;99.90;;;;;;21046590;28;20100;-79
2022/11/03 21:35:21;;;;;;;3.00;1.30;;;10.40;99.90;;;;;;21038395;28;20028;-79
2022/11/03 21:45:22;;;;;;;2.85;1.73;;;10.40;99.90;;;;;;21039794;28;20089;-78
2022/11/03 21:55:23;;;;;;;4.63;2.10;;;10.30;99.90;;;;;;20980117;28;20033;-78
2022/11/03 22:05:25;;;;;;;3.67;1.88;;;10.20;99.90;;;;;;20990725;28;20048;-79
2022/11/03 22:36:22;;;;;;;1.30;0.80;;;10.30;99.90;;;;;;20989453;28;20490;-79
2022/11/03 22:46:23;;;;;;;4.95;1.00;;;10.30;99.90;;;;;;20979321;28;20045;-78
2022/11/03 22:56:25;;;;;;;1.57;0.90;;;10.30;99.90;;;;;;20988527;28;20078;-78
2022/11/03 23:06:29;;;;;;;2.58;1.25;;;10.20;99.90;;;;;;20991024;28;20063;-79
2022/11/03 23:16:32;;;;;;;2.17;1.33;;;10.10;99.90;;;;;;20990102;28;20054;-79
2022/11/03 23:26:33;;;;;;;9.43;2.65;;;10.10;99.90;;;;;;20990984;28;20036;-78
2022/11/03 23:36:34;;;;;;;1.97;1.30;;;9.90;99.90;;;;;;21043217;28;20043;-79
